Time;durP1;ratioP1;P1;durP2;ratioP2;P2;SDS_P1;SDS_P2;PMS_P1;PMS_P2;Temp;Humidity;BMP_temperature;BMP_pressure;BME280_temperature;BME280_humidity;BME280_pressure;Samples;Min_cycle;Max_cycle;Signal;HPM_P1;HPM_P2
2023/05/29 00:03:32;;;;;;;;;;;7.60;99.90;;;;;;8190521;29;19911;-85
2023/05/29 00:07:33;;;;;;;;;;;7.50;99.90;;;;;;8172123;29;19922;-85
2023/05/29 00:11:34;;;;;;;;;;;7.30;99.90;;;;;;8180562;28;19922;-85
2023/05/29 00:15:34;;;;;;;;;;;7.30;99.90;;;;;;8178877;29;20369;-85
2023/05/29 00:19:35;;;;;;;;;;;7.50;99.90;;;;;;8190863;29;19919;-87
2023/05/29 00:23:35;;;;;;;;;;;7.00;99.90;;;;;;8188525;29;19911;-85
2023/05/29 00:27:36;;;;;;;;;;;6.60;99.90;;;;;;8181382;28;19917;-85
2023/05/29 00:31:37;;;;;;;;;;;7.00;99.90;;;;;;8184189;29;19917;-86
2023/05/29 00:35:37;;;;;;;;;;;6.50;99.90;;;;;;8185533;28;19922;-85
2023/05/29 00:39:38;;;;;;;;;;;7.10;99.90;;;;;;8191462;29;19942;-85
2023/05/29 00:43:38;;;;;;;;;;;6.00;99.90;;;;;;8184279;29;20006;-86
2023/05/29 00:47:39;;;;;;;;;;;6.40;99.90;;;;;;8194209;29;19910;-85
2023/05/29 00:51:41;;;;;;;;;;;6.10;99.90;;;;;;8182436;28;19914;-85
2023/05/29 00:55:41;;;;;;;;;;;6.90;99.90;;;;;;8174104;28;19979;-86
2023/05/29 00:59:43;;;;;;;;;;;7.20;99.90;;;;;;8176886;29;20391;-87
2023/05/29 01:03:45;;;;;;;;;;;6.80;99.90;;;;;;8174974;29;19922;-85
2023/05/29 01:07:51;;;;;;;;;;;6.30;99.90;;;;;;8181501;29;19925;-85
2023/05/29 01:12:02;;;;;;;;;;;6.50;99.90;;;;;;8167168;29;19915;-86
2023/05/29 01:16:12;;;;;;;;;;;6.10;99.90;;;;;;8199071;28;19919;-85
2023/05/29 01:20:31;;;;;;;;;;;5.90;99.90;;;;;;8179958;29;19998;-86
2023/05/29 01:24:42;;;;;;;;;;;5.90;99.90;;;;;;8196706;28;19918;-85
2023/05/29 01:28:46;;;;;;;;;;;5.90;99.90;;;;;;8181330;29;19969;-86
2023/05/29 01:32:47;;;;;;;;;;;5.70;99.90;;;;;;8199279;29;19918;-86
2023/05/29 01:36:51;;;;;;;;;;;5.60;99.90;;;;;;8185243;29;19910;-85
2023/05/29 01:40:51;;;;;;;;;;;5.50;99.90;;;;;;8191620;29;20035;-85
2023/05/29 01:45:09;;;;;;;;;;;5.50;99.90;;;;;;8187759;28;19918;-87
2023/05/29 01:49:13;;;;;;;;;;;5.50;99.90;;;;;;8186136;29;19918;-86
2023/05/29 01:53:16;;;;;;;;;;;5.50;99.90;;;;;;8187658;29;20006;-86
2023/05/29 01:57:23;;;;;;;;;;;5.50;99.90;;;;;;8181283;28;19926;-85
2023/05/29 02:01:32;;;;;;;;;;;5.60;99.90;;;;;;8186759;28;19918;-86
2023/05/29 02:05:36;;;;;;;;;;;5.70;99.90;;;;;;8190514;28;19919;-85
2023/05/29 02:09:37;;;;;;;;;;;5.60;99.90;;;;;;8198249;28;20395;-85
2023/05/29 02:13:40;;;;;;;;;;;5.40;99.90;;;;;;8188052;29;19911;-85
2023/05/29 02:17:44;;;;;;;;;;;5.50;99.90;;;;;;8179633;28;19966;-85
2023/05/29 02:21:46;;;;;;;;;;;5.40;99.90;;;;;;8189164;28;20013;-86
2023/05/29 02:25:47;;;;;;;;;;;5.30;99.90;;;;;;8183821;29;19911;-86
2023/05/29 02:29:48;;;;;;;;;;;5.20;99.90;;;;;;8183820;29;19918;-86
2023/05/29 02:33:54;;;;;;;;;;;5.10;99.90;;;;;;8188033;28;19911;-86
2023/05/29 02:37:55;;;;;;;;;;;5.10;99.90;;;;;;8194160;29;19911;-85
2023/05/29 02:41:58;;;;;;;;;;;5.10;99.90;;;;;;8198385;29;19918;-86
2023/05/29 02:45:59;;;;;;;;;;;4.90;99.90;;;;;;8193436;29;19918;-86
2023/05/29 02:50:19;;;;;;;;;;;4.90;99.90;;;;;;8189190;28;19911;-86
2023/05/29 02:54:20;;;;;;;;;;;5.10;99.90;;;;;;8192859;29;19911;-86
2023/05/29 02:58:21;;;;;;;;;;;5.10;99.90;;;;;;8191011;29;20288;-86
2023/05/29 03:02:30;;;;;;;;;;;5.10;99.90;;;;;;8181663;29;19926;-85
2023/05/29 03:06:32;;;;;;;;;;;4.90;99.90;;;;;;8179568;28;20096;-86
2023/05/29 03:11:03;;;;;;;;;;;4.90;99.90;;;;;;8181962;29;19911;-86
2023/05/29 03:15:07;;;;;;;;;;;5.20;99.90;;;;;;8197676;28;20005;-86
2023/05/29 03:19:08;;;;;;;;;;;5.00;99.90;;;;;;8176506;29;20458;-85
2023/05/29 03:23:08;;;;;;;;;;;5.00;99.90;;;;;;8179356;29;19978;-86
2023/05/29 03:31:57;;;;;;;;;;;5.00;99.90;;;;;;8176768;29;20054;-85
2023/05/29 03:35:58;;;;;;;;;;;4.90;99.90;;;;;;8176551;28;19994;-86
2023/05/29 03:40:01;;;;;;;;;;;4.90;99.90;;;;;;8193627;28;19914;-87
2023/05/29 03:44:11;;;;;;;;;;;5.10;99.90;;;;;;8196932;29;19911;-85
2023/05/29 03:48:12;;;;;;;;;;;5.10;99.90;;;;;;8175453;29;20480;-86
2023/05/29 03:52:23;;;;;;;;;;;5.20;99.90;;;;;;8196008;28;19917;-85
2023/05/29 03:56:24;;;;;;;;;;;5.40;99.90;;;;;;8193583;29;19919;-86
2023/05/29 04:00:25;;;;;;;;;;;5.60;99.90;;;;;;8191434;29;20275;-87
2023/05/29 04:04:26;;;;;;;;;;;6.10;99.90;;;;;;8190589;29;19938;-87
2023/05/29 04:08:38;;;;;;;;;;;6.50;99.90;;;;;;8186438;28;19925;-85
2023/05/29 04:12:44;;;;;;;;;;;6.90;99.90;;;;;;8185836;28;19918;-86
2023/05/29 04:16:45;;;;;;;;;;;7.30;99.90;;;;;;8177654;28;19917;-86
2023/05/29 04:21:00;;;;;;;;;;;7.70;99.90;;;;;;8175699;29;19918;-86
2023/05/29 04:25:03;;;;;;;;;;;8.20;99.90;;;;;;8185315;28;19918;-86
2023/05/29 04:29:06;;;;;;;;;;;8.50;99.90;;;;;;8181954;28;19922;-86
2023/05/29 04:33:14;;;;;;;;;;;9.20;99.90;;;;;;8181500;28;19984;-86
2023/05/29 04:37:29;;;;;;;;;;;9.40;99.90;;;;;;8194174;28;19911;-86
2023/05/29 04:46:12;;;;;;;;;;;10.20;99.90;;;;;;8185628;28;19979;-86
2023/05/29 04:50:36;;;;;;;;;;;10.70;99.90;;;;;;8185628;29;19915;-86
2023/05/29 04:54:46;;;;;;;;;;;12.10;99.90;;;;;;8180824;28;19915;-86
2023/05/29 04:58:53;;;;;;;;;;;12.20;99.90;;;;;;8173386;29;20273;-86
2023/05/29 05:02:53;;;;;;;;;;;12.80;99.90;;;;;;8182955;28;19910;-86
2023/05/29 05:06:54;;;;;;;;;;;13.60;99.90;;;;;;8171661;29;19997;-86
2023/05/29 05:11:00;;;;;;;;;;;13.80;99.90;;;;;;8173752;29;19911;-86
2023/05/29 05:15:35;;;;;;;;;;;14.00;99.90;;;;;;8168836;29;19993;-87
2023/05/29 05:19:36;;;;;;;;;;;14.40;99.90;;;;;;8197676;29;19941;-86
2023/05/29 05:23:42;;;;;;;;;;;14.90;99.90;;;;;;8182949;29;19911;-87
2023/05/29 05:27:49;;;;;;;;;;;15.20;99.90;;;;;;8184119;28;20009;-86
2023/05/29 05:32:03;;;;;;;;;;;15.80;99.90;;;;;;8174956;29;19915;-86
2023/05/29 05:36:03;;;;;;;;;;;16.00;99.90;;;;;;8169599;29;19919;-86
2023/05/29 05:40:12;;;;;;;;;;;16.50;99.90;;;;;;8181050;29;19922;-87
2023/05/29 05:44:22;;;;;;;;;;;17.20;99.90;;;;;;8175437;28;20384;-87
2023/05/29 05:48:34;;;;;;;;;;;18.00;99.90;;;;;;8172675;28;19911;-87
2023/05/29 05:52:46;;;;;;;;;;;18.20;99.90;;;;;;8174677;29;20448;-87
2023/05/29 05:56:47;;;;;;;;;;;18.70;99.90;;;;;;8178031;28;19919;-88
2023/05/29 06:00:53;;;;;;;;;;;19.10;99.90;;;;;;8188837;29;19919;-87
2023/05/29 06:04:54;;;;;;;;;;;19.20;99.90;;;;;;8186472;29;19958;-86
2023/05/29 06:09:24;;;;;;;;;;;20.00;99.90;;;;;;8180975;28;19919;-86
2023/05/29 06:13:28;;;;;;;;;;;20.20;99.90;;;;;;8187714;29;19915;-88
2023/05/29 06:17:32;;;;;;;;;;;20.30;99.90;;;;;;8179360;29;19938;-87
2023/05/29 06:21:33;;;;;;;;;;;20.70;99.90;;;;;;8187345;28;19915;-86
2023/05/29 06:25:33;;;;;;;;;;;20.70;99.90;;;;;;8180411;29;19918;-86
2023/05/29 06:29:46;;;;;;;;;;;20.50;99.90;;;;;;8188584;29;20387;-86
2023/05/29 06:33:56;;;;;;;;;;;20.10;99.90;;;;;;8188029;29;19910;-86
2023/05/29 06:38:02;;;;;;;;;;;20.00;99.90;;;;;;8197395;28;20550;-86
2023/05/29 06:42:06;;;;;;;;;;;19.80;99.90;;;;;;8189421;29;19926;-86
2023/05/29 06:46:34;;;;;;;;;;;19.70;99.90;;;;;;8195237;29;19910;-86
2023/05/29 06:50:31;;;;;;;;;;;19.60;99.90;;;;;;8185359;29;19918;-86
2023/05/29 06:54:35;;;;;;;;;;;20.30;99.90;;;;;;8179468;29;20175;-86
2023/05/29 06:58:41;;;;;;;;;;;20.20;99.90;;;;;;8188535;28;19922;-86
2023/05/29 07:02:55;;;;;;;;;;;20.50;99.90;;;;;;8179376;28;20517;-86
2023/05/29 07:06:56;;;;;;;;;;;20.70;99.90;;;;;;8186117;29;20492;-85
2023/05/29 07:11:01;;;;;;;;;;;20.90;99.90;;;;;;8174095;28;19926;-87
2023/05/29 07:15:11;;;;;;;;;;;21.30;99.90;;;;;;8192922;28;19950;-85
2023/05/29 07:19:17;;;;;;;;;;;21.00;99.90;;;;;;8181811;29;19919;-86
2023/05/29 07:23:27;;;;;;;;;;;20.90;99.90;;;;;;8180216;29;19910;-86
2023/05/29 07:27:27;;;;;;;;;;;20.90;99.90;;;;;;8196111;28;19911;-86
2023/05/29 07:31:30;;;;;;;;;;;21.10;99.90;;;;;;8177392;28;20292;-87
2023/05/29 07:35:34;;;;;;;;;;;21.20;99.90;;;;;;8177135;29;20519;-86
2023/05/29 07:39:49;;;;;;;;;;;21.20;99.90;;;;;;8418550;28;19924;-76
2023/05/29 07:43:52;;;;;;;;;;;21.00;99.90;;;;;;8444018;28;19912;-75
2023/05/29 07:47:52;;;;;;;;;;;21.00;99.90;;;;;;8408252;28;20379;-76
2023/05/29 07:51:53;;;;;;;;;;;21.00;99.90;;;;;;8401795;28;19923;-76
2023/05/29 07:55:53;;;;;;;;;;;21.40;99.90;;;;;;8406457;28;19999;-80
2023/05/29 07:59:54;;;;;;;;;;;21.30;99.90;;;;;;8422408;28;20277;-80
2023/05/29 08:03:55;;;;;;;;;;;21.20;99.90;;;;;;8411563;28;19916;-82
2023/05/29 08:07:55;;;;;;;;;;;21.40;99.90;;;;;;8416834;28;19965;-80
2023/05/29 08:11:56;;;;;;;;;;;21.60;99.90;;;;;;8405475;28;19913;-80
2023/05/29 08:15:56;;;;;;;;;;;21.50;99.90;;;;;;8414067;28;19916;-80
2023/05/29 08:19:57;;;;;;;;;;;21.70;99.90;;;;;;8414934;28;19913;-81
2023/05/29 08:23:57;;;;;;;;;;;21.80;99.90;;;;;;8408356;28;19951;-81
2023/05/29 08:27:58;;;;;;;;;;;22.30;99.90;;;;;;8428959;28;19912;-79
2023/05/29 08:31:58;;;;;;;;;;;22.00;99.90;;;;;;8425667;28;20007;-80
2023/05/29 08:35:59;;;;;;;;;;;22.00;99.90;;;;;;8409672;28;19975;-83
2023/05/29 08:40:00;;;;;;;;;;;22.30;99.90;;;;;;8446693;28;19922;-84
2023/05/29 08:44:02;;;;;;;;;;;22.40;99.90;;;;;;8449938;28;19916;-80
2023/05/29 08:48:02;;;;;;;;;;;22.30;99.90;;;;;;8453581;28;20366;-81
2023/05/29 08:52:07;;;;;;;;;;;22.70;99.90;;;;;;8442029;28;19954;-79
2023/05/29 08:56:07;;;;;;;;;;;22.70;99.90;;;;;;8442908;28;19966;-79
2023/05/29 09:00:12;;;;;;;;;;;22.60;98.80;;;;;;8437465;28;20334;-79
2023/05/29 09:04:12;;;;;;;;;;;22.80;98.80;;;;;;8431123;28;19916;-79
2023/05/29 09:08:13;;;;;;;;;;;22.60;99.20;;;;;;8430961;28;19973;-80
2023/05/29 09:12:14;;;;;;;;;;;22.50;96.10;;;;;;8430359;28;19913;-81
2023/05/29 09:16:18;;;;;;;;;;;22.10;97.40;;;;;;8417032;28;19942;-78
2023/05/29 09:20:19;;;;;;;;;;;22.40;97.90;;;;;;8428298;28;19908;-80
2023/05/29 09:24:19;;;;;;;;;;;22.70;94.90;;;;;;8422432;28;19999;-79
2023/05/29 09:28:23;;;;;;;;;;;22.40;95.50;;;;;;8417100;28;20471;-80
2023/05/29 09:32:32;;;;;;;;;;;22.50;94.70;;;;;;8417754;28;20659;-80
2023/05/29 09:36:32;;;;;;;;;;;23.00;94.70;;;;;;8418136;28;19922;-80
2023/05/29 09:40:34;;;;;;;;;;;23.60;93.20;;;;;;8420683;28;19912;-81
2023/05/29 09:44:34;;;;;;;;;;;23.60;91.20;;;;;;8421548;28;19912;-81
2023/05/29 09:48:35;;;;;;;;;;;23.30;91.90;;;;;;8423818;28;19973;-80
2023/05/29 09:52:36;;;;;;;;;;;22.90;90.80;;;;;;8420894;28;20361;-78
2023/05/29 09:56:37;;;;;;;;;;;23.00;95.00;;;;;;8417780;28;19927;-78
2023/05/29 10:00:41;;;;;;;;;;;23.40;90.90;;;;;;8421725;28;20064;-82
2023/05/29 10:04:43;;;;;;;;;;;23.70;88.60;;;;;;8443018;28;19920;-78
2023/05/29 10:08:48;;;;;;;;;;;23.60;87.80;;;;;;8424131;28;19951;-84
2023/05/29 10:12:50;;;;;;;;;;;23.60;88.70;;;;;;8447624;28;20361;-83
2023/05/29 10:16:52;;;;;;;;;;;24.40;87.80;;;;;;8427391;28;19965;-82
2023/05/29 10:20:55;;;;;;;;;;;24.80;85.70;;;;;;8451883;28;19955;-82
2023/05/29 10:24:56;;;;;;;;;;;25.40;81.30;;;;;;8444353;28;19915;-82
2023/05/29 10:29:05;;;;;;;;;;;25.40;76.80;;;;;;8446906;28;19916;-83
2023/05/29 10:33:29;;;;;;;;;;;25.00;82.80;;;;;;8440578;28;19937;-82
2023/05/29 10:37:33;;;;;;;;;;;24.30;78.80;;;;;;8434165;28;19916;-78
2023/05/29 10:41:33;;;;;;;;;;;24.80;78.60;;;;;;8409826;28;19915;-78
2023/05/29 10:45:37;;;;;;;;;;;25.40;78.30;;;;;;8415054;28;20413;-78
2023/05/29 10:49:38;;;;;;;;;;;25.60;72.70;;;;;;8418775;28;20360;-77
2023/05/29 10:53:40;;;;;;;;;;;26.50;71.20;;;;;;8431146;28;19964;-77
2023/05/29 10:57:46;;;;;;;;;;;26.10;74.40;;;;;;8421159;28;19916;-78
2023/05/29 11:01:46;;;;;;;;;;;25.50;69.20;;;;;;8421620;28;19963;-79
2023/05/29 11:05:58;;;;;;;;;;;25.50;79.80;;;;;;8421851;28;20384;-77
2023/05/29 11:10:10;;;;;;;;;;;26.30;68.10;;;;;;8412391;28;19912;-77
2023/05/29 11:14:11;;;;;;;;;;;25.50;73.10;;;;;;8410058;28;19923;-79
2023/05/29 11:18:11;;;;;;;;;;;26.30;67.90;;;;;;8406297;28;19917;-76
2023/05/29 11:22:15;;;;;;;;;;;26.80;64.50;;;;;;8404202;28;19921;-79
2023/05/29 11:26:17;;;;;;;;;;;26.10;64.60;;;;;;8400991;28;19939;-80
2023/05/29 11:30:18;;;;;;;;;;;26.10;68.10;;;;;;8399605;28;20003;-81
2023/05/29 11:34:20;;;;;;;;;;;26.30;62.00;;;;;;8410111;28;19912;-77
2023/05/29 11:38:20;;;;;;;;;;;26.30;68.10;;;;;;8408696;28;19952;-79
2023/05/29 11:42:24;;;;;;;;;;;27.00;62.00;;;;;;8434566;23;19933;-84
2023/05/29 11:46:38;;;;;;;;;;;26.80;66.40;;;;;;8346319;28;19935;-84
2023/05/29 11:50:43;;;;;;;;;;;25.90;63.00;;;;;;8352045;28;19940;-85
2023/05/29 11:59:22;;;;;;;;;;;28.00;59.60;;;;;;8337798;28;20513;-85
2023/05/29 12:03:23;;;;;;;;;;;27.90;61.00;;;;;;8344877;28;19920;-85
2023/05/29 12:07:26;;;;;;;;;;;27.00;60.90;;;;;;8343917;28;20267;-85
2023/05/29 12:11:34;;;;;;;;;;;27.80;58.70;;;;;;8347494;28;19913;-85
2023/05/29 12:15:35;;;;;;;;;;;27.70;60.50;;;;;;8344667;28;19947;-85
2023/05/29 12:19:42;;;;;;;;;;;27.40;60.60;;;;;;8360021;28;19921;-86
2023/05/29 12:23:43;;;;;;;;;;;28.20;62.00;;;;;;8355289;28;19908;-85
2023/05/29 12:27:47;;;;;;;;;;;27.20;58.60;;;;;;8351521;28;20359;-85
2023/05/29 12:32:00;;;;;;;;;;;26.70;61.70;;;;;;8354036;28;19959;-86
2023/05/29 12:36:13;;;;;;;;;;;27.40;59.10;;;;;;8370080;28;19967;-86
2023/05/29 12:40:17;;;;;;;;;;;28.00;58.30;;;;;;8364975;28;20437;-85
2023/05/29 12:44:24;;;;;;;;;;;28.20;60.00;;;;;;8358576;28;19920;-86
2023/05/29 12:48:33;;;;;;;;;;;29.70;58.90;;;;;;8347943;28;19916;-85
2023/05/29 12:52:40;;;;;;;;;;;28.60;58.10;;;;;;8356202;28;19920;-85
2023/05/29 12:56:41;;;;;;;;;;;28.30;57.60;;;;;;8349393;28;19925;-85
2023/05/29 13:00:42;;;;;;;;;;;29.00;57.50;;;;;;8351526;28;19913;-87
2023/05/29 13:04:43;;;;;;;;;;;29.10;56.00;;;;;;8349963;28;19938;-85
2023/05/29 13:08:52;;;;;;;;;;;28.60;56.50;;;;;;8351317;28;20340;-85
2023/05/29 13:13:05;;;;;;;;;;;29.80;52.70;;;;;;8364410;28;19919;-85
2023/05/29 13:17:05;;;;;;;;;;;29.10;57.20;;;;;;8342948;28;19993;-85
2023/05/29 13:21:06;;;;;;;;;;;28.80;56.20;;;;;;8358643;28;19913;-86
2023/05/29 13:25:10;;;;;;;;;;;28.30;55.40;;;;;;8358137;28;19916;-82
2023/05/29 13:29:14;;;;;;;;;;;28.20;55.80;;;;;;8360726;28;19912;-86
2023/05/29 13:33:15;;;;;;;;;;;29.00;54.70;;;;;;8356988;28;20362;-85
2023/05/29 13:37:16;;;;;;;;;;;28.30;56.80;;;;;;8370166;28;19920;-85
2023/05/29 13:41:22;;;;;;;;;;;28.30;59.00;;;;;;8359773;28;19913;-86
2023/05/29 13:45:28;;;;;;;;;;;30.10;52.90;;;;;;8345136;28;20369;-85
2023/05/29 13:49:29;;;;;;;;;;;29.80;51.30;;;;;;8346646;28;19909;-85
2023/05/29 13:53:29;;;;;;;;;;;29.80;51.20;;;;;;8347940;28;20285;-85
2023/05/29 13:57:31;;;;;;;;;;;29.60;53.50;;;;;;8350933;28;20324;-85
2023/05/29 14:01:33;;;;;;;;;;;29.70;55.60;;;;;;8346602;28;20055;-85
2023/05/29 14:05:39;;;;;;;;;;;30.50;51.10;;;;;;8346530;28;20030;-85
2023/05/29 14:09:40;;;;;;;;;;;32.60;48.70;;;;;;8345418;28;19909;-85
2023/05/29 14:13:50;;;;;;;;;;;31.10;48.50;;;;;;8350859;28;20387;-85
2023/05/29 14:17:58;;;;;;;;;;;30.70;50.50;;;;;;8345809;28;20310;-86
2023/05/29 14:22:00;;;;;;;;;;;29.00;51.40;;;;;;8356932;28;19909;-85
2023/05/29 14:26:04;;;;;;;;;;;29.40;51.20;;;;;;8370501;28;19966;-85
2023/05/29 14:30:05;;;;;;;;;;;28.40;53.40;;;;;;8358955;28;19960;-85
2023/05/29 14:34:09;;;;;;;;;;;28.10;52.00;;;;;;8364713;28;19974;-84
2023/05/29 14:38:12;;;;;;;;;;;28.30;57.30;;;;;;8367374;28;19971;-86
2023/05/29 14:42:16;;;;;;;;;;;29.30;50.40;;;;;;8361098;28;20033;-85
2023/05/29 14:46:16;;;;;;;;;;;29.80;52.10;;;;;;8357562;28;19969;-85
2023/05/29 14:50:17;;;;;;;;;;;30.40;48.70;;;;;;8361729;28;19912;-84
2023/05/29 14:54:17;;;;;;;;;;;31.20;51.90;;;;;;8360113;28;19965;-86
2023/05/29 14:58:18;;;;;;;;;;;28.80;52.70;;;;;;8359062;28;20365;-85
2023/05/29 15:02:19;;;;;;;;;;;28.10;53.80;;;;;;8373000;28;19908;-85
2023/05/29 15:06:20;;;;;;;;;;;27.80;53.60;;;;;;8372333;28;19909;-85
2023/05/29 15:10:24;;;;;;;;;;;27.70;53.50;;;;;;8368982;28;19912;-85
2023/05/29 15:14:24;;;;;;;;;;;28.10;53.30;;;;;;8357242;28;19910;-85
2023/05/29 15:18:26;;;;;;;;;;;28.50;52.20;;;;;;8369833;28;19916;-85
2023/05/29 15:22:29;;;;;;;;;;;28.80;51.70;;;;;;8372171;28;19920;-85
2023/05/29 15:26:30;;;;;;;;;;;29.00;49.70;;;;;;8365378;28;20308;-86
2023/05/29 15:30:31;;;;;;;;;;;28.30;51.20;;;;;;8358237;28;19912;-85
2023/05/29 15:34:33;;;;;;;;;;;27.60;56.60;;;;;;8373551;28;19977;-84
2023/05/29 15:38:34;;;;;;;;;;;27.00;54.40;;;;;;8359806;28;19912;-85
2023/05/29 15:42:35;;;;;;;;;;;26.50;55.40;;;;;;8371853;28;20007;-84
2023/05/29 15:46:35;;;;;;;;;;;25.20;55.10;;;;;;8371690;28;20423;-84
2023/05/29 15:50:38;;;;;;;;;;;24.20;57.50;;;;;;8369507;28;19916;-84
2023/05/29 15:54:42;;;;;;;;;;;23.60;58.40;;;;;;8359164;28;19912;-85
2023/05/29 15:58:45;;;;;;;;;;;23.20;58.80;;;;;;8358697;28;19952;-84
2023/05/29 16:02:46;;;;;;;;;;;23.00;60.00;;;;;;8374124;28;19916;-84
2023/05/29 16:06:47;;;;;;;;;;;23.10;60.20;;;;;;8362119;28;20424;-84
2023/05/29 16:10:47;;;;;;;;;;;22.90;62.60;;;;;;8361078;28;19962;-85
2023/05/29 16:14:48;;;;;;;;;;;22.80;62.00;;;;;;8364886;28;19935;-84
2023/05/29 16:18:48;;;;;;;;;;;22.80;60.10;;;;;;8348034;28;19923;-85
2023/05/29 16:22:52;;;;;;;;;;;22.90;63.60;;;;;;8367704;28;19908;-84
2023/05/29 16:26:58;;;;;;;;;;;22.90;60.80;;;;;;8366881;28;19909;-84
2023/05/29 16:30:59;;;;;;;;;;;23.20;59.30;;;;;;8358005;28;20019;-84
2023/05/29 16:34:59;;;;;;;;;;;23.10;59.70;;;;;;8374324;28;19909;-85
2023/05/29 16:39:00;;;;;;;;;;;23.00;61.40;;;;;;8356673;28;19913;-84
2023/05/29 16:43:01;;;;;;;;;;;22.90;59.30;;;;;;8363595;28;19958;-84
2023/05/29 16:47:01;;;;;;;;;;;22.80;59.20;;;;;;8373831;28;20534;-85
2023/05/29 16:51:02;;;;;;;;;;;22.80;59.80;;;;;;8372787;28;20273;-84
2023/05/29 16:55:02;;;;;;;;;;;22.60;58.60;;;;;;8376251;28;19959;-85
2023/05/29 16:59:03;;;;;;;;;;;22.30;60.40;;;;;;8357150;28;19916;-83
2023/05/29 17:03:04;;;;;;;;;;;22.20;60.50;;;;;;8347366;28;19916;-84
2023/05/29 17:07:05;;;;;;;;;;;22.10;59.80;;;;;;8352977;28;19952;-84
2023/05/29 17:11:09;;;;;;;;;;;22.00;60.00;;;;;;8349499;28;19962;-84
2023/05/29 17:15:11;;;;;;;;;;;21.90;59.80;;;;;;8346168;28;19917;-85
2023/05/29 17:19:12;;;;;;;;;;;21.80;61.20;;;;;;8344943;28;20377;-84
2023/05/29 17:23:13;;;;;;;;;;;21.60;60.70;;;;;;8344751;28;19913;-86
2023/05/29 17:27:19;;;;;;;;;;;21.50;62.10;;;;;;8342468;28;19916;-85
2023/05/29 17:31:20;;;;;;;;;;;21.50;64.00;;;;;;8340105;28;19917;-85
2023/05/29 17:35:23;;;;;;;;;;;21.40;65.30;;;;;;8351211;28;19920;-84
2023/05/29 17:39:24;;;;;;;;;;;21.20;65.80;;;;;;8347777;28;19925;-84
2023/05/29 17:43:27;;;;;;;;;;;21.20;67.20;;;;;;8348940;28;20019;-85
2023/05/29 17:47:31;;;;;;;;;;;21.10;62.70;;;;;;8342178;28;19920;-84
2023/05/29 17:51:34;;;;;;;;;;;21.00;64.70;;;;;;8369542;28;20003;-85
2023/05/29 17:55:35;;;;;;;;;;;20.80;64.30;;;;;;8345814;28;19912;-88
2023/05/29 17:59:53;;;;;;;;;;;20.80;66.50;;;;;;8344565;28;19979;-87
2023/05/29 18:03:57;;;;;;;;;;;20.60;68.90;;;;;;8361762;28;20443;-87
2023/05/29 18:12:42;;;;;;;;;;;20.00;69.30;;;;;;8364653;28;19919;-87
2023/05/29 18:16:48;;;;;;;;;;;19.80;70.60;;;;;;8349294;28;19917;-86
2023/05/29 18:25:14;;;;;;;;;;;19.60;73.20;;;;;;8323906;28;19936;-87
2023/05/29 18:29:15;;;;;;;;;;;19.40;74.00;;;;;;8310587;28;20478;-86
2023/05/29 18:33:21;;;;;;;;;;;18.90;76.40;;;;;;8311400;28;19920;-86
2023/05/29 18:37:32;;;;;;;;;;;;;;;;;;;;;
2023/05/29 18:41:45;;;;;;;;;;;17.90;84.40;;;;;;8329168;28;19913;-87
2023/05/29 18:45:55;;;;;;;;;;;17.40;87.90;;;;;;8317842;28;19967;-87
2023/05/29 18:50:17;;;;;;;;;;;17.00;87.80;;;;;;8331713;28;19913;-87
2023/05/29 18:54:20;;;;;;;;;;;16.80;90.30;;;;;;8338539;28;19913;-87
2023/05/29 18:58:33;;;;;;;;;;;16.50;91.00;;;;;;8316886;28;19922;-87
2023/05/29 19:03:00;;;;;;;;;;;16.20;92.80;;;;;;8333408;28;19913;-87
2023/05/29 19:07:06;;;;;;;;;;;16.00;93.50;;;;;;8348133;28;19919;-90
2023/05/29 19:11:07;;;;;;;;;;;15.70;93.90;;;;;;8377162;23;21169;-76
2023/05/29 19:15:07;;;;;;;;;;;15.50;95.10;;;;;;8367750;28;20008;-75
2023/05/29 19:19:08;;;;;;;;;;;15.30;95.50;;;;;;8354310;28;19920;-77
2023/05/29 19:23:08;;;;;;;;;;;15.10;96.00;;;;;;8346488;28;19917;-78
2023/05/29 19:27:10;;;;;;;;;;;14.90;97.00;;;;;;8346267;28;19913;-77
2023/05/29 19:31:10;;;;;;;;;;;14.60;98.10;;;;;;8344552;28;19943;-78
2023/05/29 19:35:11;;;;;;;;;;;14.40;98.90;;;;;;8331740;28;20517;-78
2023/05/29 19:39:12;;;;;;;;;;;14.30;99.90;;;;;;8333913;28;19921;-82
2023/05/29 19:43:13;;;;;;;;;;;14.30;99.90;;;;;;8344382;28;19920;-81
2023/05/29 19:47:13;;;;;;;;;;;14.10;99.90;;;;;;8350614;28;19913;-82
2023/05/29 19:51:14;;;;;;;;;;;13.90;99.90;;;;;;8347030;28;19928;-82
2023/05/29 19:55:14;;;;;;;;;;;13.80;99.90;;;;;;8345033;28;19917;-81
2023/05/29 19:59:15;;;;;;;;;;;13.60;99.90;;;;;;8346466;28;19925;-77
2023/05/29 20:03:15;;;;;;;;;;;13.30;99.90;;;;;;8338179;28;19913;-78
2023/05/29 20:07:16;;;;;;;;;;;13.10;99.90;;;;;;8341822;28;19920;-78
2023/05/29 20:11:16;;;;;;;;;;;13.00;99.90;;;;;;8339027;28;19921;-78
2023/05/29 20:15:17;;;;;;;;;;;12.90;99.90;;;;;;8338998;28;19917;-77
2023/05/29 20:19:17;;;;;;;;;;;12.80;99.90;;;;;;8335535;28;19920;-78
2023/05/29 20:23:18;;;;;;;;;;;12.70;99.90;;;;;;8336962;28;19919;-78
2023/05/29 20:27:18;;;;;;;;;;;12.50;99.90;;;;;;8338750;28;19913;-78
2023/05/29 20:31:19;;;;;;;;;;;12.50;99.90;;;;;;8332091;28;19914;-78
2023/05/29 20:35:20;;;;;;;;;;;12.40;99.90;;;;;;8328364;28;19944;-77
2023/05/29 20:39:27;;;;;;;;;;;12.40;99.90;;;;;;8341468;28;19920;-78
2023/05/29 20:43:29;;;;;;;;;;;12.30;99.90;;;;;;8341919;28;19924;-78
2023/05/29 20:47:30;;;;;;;;;;;12.30;99.90;;;;;;8356751;28;19961;-78
2023/05/29 20:51:32;;;;;;;;;;;12.20;99.90;;;;;;8352640;28;19916;-78
2023/05/29 20:55:32;;;;;;;;;;;12.10;99.90;;;;;;8342514;28;20397;-78
2023/05/29 20:59:33;;;;;;;;;;;12.00;99.90;;;;;;8345078;28;19921;-78
2023/05/29 21:03:34;;;;;;;;;;;11.90;99.90;;;;;;8348419;28;19921;-77
2023/05/29 21:07:36;;;;;;;;;;;11.90;99.90;;;;;;8341054;28;19912;-78
2023/05/29 21:11:37;;;;;;;;;;;11.80;99.90;;;;;;8346433;28;20376;-78
2023/05/29 21:15:38;;;;;;;;;;;11.70;99.90;;;;;;8343542;28;19909;-77
2023/05/29 21:19:38;;;;;;;;;;;11.50;99.90;;;;;;8341185;28;19917;-79
2023/05/29 21:23:39;;;;;;;;;;;11.40;99.90;;;;;;8354213;28;19923;-77
2023/05/29 21:27:39;;;;;;;;;;;11.20;99.90;;;;;;8354607;28;19913;-78
2023/05/29 21:31:40;;;;;;;;;;;11.10;99.90;;;;;;8350763;28;19978;-78
2023/05/29 21:35:42;;;;;;;;;;;11.00;99.90;;;;;;8361862;28;19951;-78
2023/05/29 21:39:42;;;;;;;;;;;10.90;99.90;;;;;;8341806;28;19963;-78
2023/05/29 21:43:43;;;;;;;;;;;10.80;99.90;;;;;;8347727;28;20290;-78
2023/05/29 21:47:45;;;;;;;;;;;10.70;99.90;;;;;;8352349;28;19959;-77
2023/05/29 21:51:46;;;;;;;;;;;11.00;99.90;;;;;;8346236;28;19913;-77
2023/05/29 21:55:46;;;;;;;;;;;10.90;99.90;;;;;;8345621;28;19909;-77
2023/05/29 21:59:47;;;;;;;;;;;10.70;99.90;;;;;;8346469;28;20635;-78
2023/05/29 22:03:50;;;;;;;;;;;10.70;99.90;;;;;;8351793;28;19915;-77
2023/05/29 22:07:52;;;;;;;;;;;10.20;99.90;;;;;;8344836;28;19908;-77
2023/05/29 22:11:53;;;;;;;;;;;10.00;99.90;;;;;;8343716;28;19917;-78
2023/05/29 22:15:53;;;;;;;;;;;9.90;99.90;;;;;;8353401;28;20380;-77
2023/05/29 22:19:55;;;;;;;;;;;9.70;99.90;;;;;;8338591;28;19913;-78
2023/05/29 22:23:55;;;;;;;;;;;9.70;99.90;;;;;;8359593;28;19909;-77
2023/05/29 22:27:56;;;;;;;;;;;9.70;99.90;;;;;;8345692;28;19913;-77
2023/05/29 22:31:56;;;;;;;;;;;9.70;99.90;;;;;;8346840;28;19913;-78
2023/05/29 22:35:57;;;;;;;;;;;9.60;99.90;;;;;;8341167;28;19913;-78
2023/05/29 22:39:57;;;;;;;;;;;9.60;99.90;;;;;;8353528;28;19917;-78
2023/05/29 22:43:58;;;;;;;;;;;9.60;99.90;;;;;;8345618;28;19983;-78
2023/05/29 22:47:58;;;;;;;;;;;9.50;99.90;;;;;;8344401;28;19909;-77
2023/05/29 22:52:00;;;;;;;;;;;9.70;99.90;;;;;;8344006;28;19952;-78
2023/05/29 22:56:01;;;;;;;;;;;9.70;99.90;;;;;;8345478;28;19909;-78
2023/05/29 23:00:08;;;;;;;;;;;9.70;99.90;;;;;;8345924;28;19921;-78
2023/05/29 23:04:09;;;;;;;;;;;9.60;99.90;;;;;;8344565;28;20035;-78
2023/05/29 23:08:10;;;;;;;;;;;9.40;99.90;;;;;;8342705;28;20003;-78
2023/05/29 23:12:10;;;;;;;;;;;9.60;99.90;;;;;;8340871;28;19909;-77
2023/05/29 23:16:11;;;;;;;;;;;9.40;99.90;;;;;;8359583;28;20296;-78
2023/05/29 23:20:16;;;;;;;;;;;9.40;99.90;;;;;;8351740;28;19920;-76
2023/05/29 23:24:16;;;;;;;;;;;9.30;99.90;;;;;;8372543;28;19915;-77
2023/05/29 23:28:18;;;;;;;;;;;9.20;99.90;;;;;;8352034;28;20377;-78
2023/05/29 23:32:18;;;;;;;;;;;9.50;99.90;;;;;;8340091;28;20035;-77
2023/05/29 23:36:19;;;;;;;;;;;9.60;99.90;;;;;;8350462;28;20672;-76
2023/05/29 23:40:19;;;;;;;;;;;9.60;99.90;;;;;;8340050;28;20308;-78
2023/05/29 23:44:20;;;;;;;;;;;9.60;99.90;;;;;;8347278;28;20000;-77
2023/05/29 23:52:24;;;;;;;;;;;9.60;99.90;;;;;;8274531;28;20028;-77
2023/05/29 23:56:25;;;;;;;;;;;9.90;99.90;;;;;;8248895;28;20311;-78
